Terminal Aerodrome Forecast
Issued by NWS Wilmington, OH

Current Version | Previous Version | Text Only | Print | Product List | Glossary Off
Versions: 1 2 3 4 5 6 7 8 9 10 11 12 13 14 15

000
FTUS41 KILN 261700
TAFILN
TAF
KILN 261728Z 2618/2718 18005KT P6SM SCT035 SCT250
     FM262300 VRB03KT P6SM SCT250
     FM270700 VRB02KT 5SM BR VCTS SCT050CB BKN100
     FM271200 34004KT P6SM VCTS BKN050CB
     FM271500 34005KT P6SM SCT050 SCT100=

USA.gov is the U.S. government's official web portal to all federal, state and local government web resources and services.